Time;durP1;ratioP1;P1;durP2;ratioP2;P2;SDS_P1;SDS_P2;PMS_P1;PMS_P2;Temp;Humidity;BMP_temperature;BMP_pressure;BME280_temperature;BME280_humidity;BME280_pressure;Samples;Min_cycle;Max_cycle;Signal;HPM_P1;HPM_P2
2021/05/11 00:01:33;;;;;;;9.43;6.03;;;22.00;48.10;;;;;;5111935;28;20093;-41
2021/05/11 00:04:00;;;;;;;7.57;5.30;;;22.00;48.10;;;;;;5111186;27;20039;-40
2021/05/11 00:06:27;;;;;;;8.18;5.72;;;22.00;48.10;;;;;;5111912;28;20046;-42
2021/05/11 00:08:54;;;;;;;7.63;4.97;;;22.00;48.10;;;;;;5110245;28;20051;-41
2021/05/11 00:11:20;;;;;;;7.47;5.00;;;22.10;48.10;;;;;;5111499;28;20441;-43
2021/05/11 00:13:47;;;;;;;8.02;5.15;;;22.10;48.10;;;;;;5110977;28;20043;-41
2021/05/11 00:16:14;;;;;;;7.78;5.00;;;22.00;48.00;;;;;;5097278;28;20437;-41
2021/05/11 00:18:40;;;;;;;7.10;5.18;;;22.00;48.00;;;;;;5111690;28;20039;-41
2021/05/11 00:21:08;;;;;;;7.82;5.25;;;22.00;48.00;;;;;;5111613;28;20062;-42
2021/05/11 00:23:34;;;;;;;7.70;5.10;;;22.00;48.00;;;;;;5110842;27;20441;-44
2021/05/11 00:26:01;;;;;;;8.32;5.38;;;22.00;48.00;;;;;;5111769;28;20100;-46
2021/05/11 00:28:28;;;;;;;7.57;4.80;;;22.00;48.00;;;;;;5110115;28;20056;-44
2021/05/11 00:30:54;;;;;;;7.25;4.82;;;22.10;48.10;;;;;;5110253;28;20093;-40
2021/05/11 00:33:21;;;;;;;7.57;4.95;;;22.00;48.00;;;;;;5111383;28;20044;-41
2021/05/11 00:35:47;;;;;;;8.77;5.13;;;22.00;48.00;;;;;;5110032;28;20048;-41
2021/05/11 00:38:14;;;;;;;6.72;4.88;;;22.00;48.00;;;;;;5110768;28;20047;-41
2021/05/11 00:40:41;;;;;;;7.97;5.55;;;22.00;48.00;;;;;;5111730;28;20043;-41
2021/05/11 00:43:07;;;;;;;7.70;5.05;;;22.00;48.00;;;;;;5109755;28;20552;-41
2021/05/11 00:45:34;;;;;;;6.82;5.15;;;22.10;48.10;;;;;;5101483;27;20039;-43
2021/05/11 00:48:00;;;;;;;8.05;5.72;;;22.00;48.00;;;;;;5110380;28;20047;-41
2021/05/11 00:50:27;;;;;;;8.20;5.28;;;22.00;48.00;;;;;;5110839;28;20404;-41
2021/05/11 00:52:55;;;;;;;7.15;5.18;;;22.00;48.00;;;;;;5111330;28;20066;-42
2021/05/11 00:55:22;;;;;;;6.88;5.15;;;22.00;48.00;;;;;;5110907;28;20044;-41
2021/05/11 00:57:48;;;;;;;8.02;5.18;;;22.00;48.00;;;;;;5109958;28;20047;-42
2021/05/11 01:00:16;;;;;;;7.90;4.97;;;22.00;48.00;;;;;;5111379;28;20077;-41
2021/05/11 01:02:42;;;;;;;6.47;4.88;;;22.10;48.10;;;;;;5110168;28;20109;-42
2021/05/11 01:05:10;;;;;;;8.32;5.20;;;22.00;48.00;;;;;;5110542;28;20131;-42
2021/05/11 01:07:36;;;;;;;6.57;4.82;;;22.00;48.00;;;;;;5110484;28;20052;-43
2021/05/11 01:10:04;;;;;;;6.97;4.80;;;22.00;48.00;;;;;;5109542;28;20055;-43
2021/05/11 01:12:31;;;;;;;6.72;4.65;;;22.00;48.00;;;;;;5110633;28;20048;-42
2021/05/11 01:14:58;;;;;;;7.68;4.75;;;22.00;47.90;;;;;;5109152;28;20051;-43
2021/05/11 01:17:35;;;;;;;6.78;4.28;;;22.00;48.00;;;;;;5110476;28;20059;-45
2021/05/11 01:20:05;;;;;;;7.03;4.85;;;22.00;48.00;;;;;;5111107;28;20040;-45
2021/05/11 01:25:24;;;;;;;7.40;5.03;;;22.00;47.90;;;;;;5109658;28;20556;-44
2021/05/11 01:27:55;;;;;;;6.70;5.07;;;22.00;47.90;;;;;;5102222;28;20488;-42
2021/05/11 02:25:04;;;;;;;5.93;4.28;;;22.00;47.90;;;;;;5112546;28;20428;-41
2021/05/11 02:27:31;;;;;;;6.30;4.65;;;22.00;47.90;;;;;;5114024;28;20047;-41
2021/05/11 02:29:58;;;;;;;6.15;4.47;;;22.00;47.90;;;;;;5120652;27;20055;-44
2021/05/11 02:32:24;;;;;;;6.55;4.55;;;22.00;47.90;;;;;;5115043;28;20050;-43
2021/05/11 02:34:51;;;;;;;6.28;4.40;;;22.00;47.90;;;;;;5114953;28;20048;-44
2021/05/11 02:37:18;;;;;;;7.15;4.88;;;22.00;47.90;;;;;;5097342;28;20044;-43
2021/05/11 02:39:44;;;;;;;7.38;4.47;;;22.00;47.90;;;;;;5115550;27;20096;-41
2021/05/11 02:42:11;;;;;;;6.80;4.82;;;22.00;47.90;;;;;;5115588;27;20125;-41
2021/05/11 02:44:43;;;;;;;7.32;4.75;;;22.00;47.90;;;;;;5096559;28;20039;-44
2021/05/11 02:47:10;;;;;;;7.63;4.85;;;22.00;47.90;;;;;;5114788;28;20047;-42
2021/05/11 02:49:40;;;;;;;6.47;4.53;;;22.00;47.90;;;;;;5114765;28;20044;-45
2021/05/11 02:52:07;;;;;;;6.88;4.95;;;22.00;47.90;;;;;;5115522;27;20093;-41
2021/05/11 02:54:34;;;;;;;6.38;4.55;;;22.00;47.90;;;;;;5115554;27;20047;-44
2021/05/11 02:57:00;;;;;;;7.18;4.68;;;22.00;47.90;;;;;;5113822;28;20172;-41
2021/05/11 02:59:27;;;;;;;7.03;4.30;;;22.00;47.90;;;;;;5116409;27;20043;-42
2021/05/11 03:01:54;;;;;;;6.85;4.78;;;22.00;47.90;;;;;;5115040;27;20403;-44
2021/05/11 03:04:21;;;;;;;6.57;4.50;;;22.00;47.90;;;;;;5096371;28;20051;-40
2021/05/11 03:06:47;;;;;;;6.95;4.75;;;22.00;47.90;;;;;;5114943;27;20398;-42
2021/05/11 03:09:15;;;;;;;6.57;4.57;;;22.00;47.90;;;;;;5114761;27;20065;-41
2021/05/11 03:11:41;;;;;;;6.20;4.55;;;22.00;47.90;;;;;;5114766;27;20043;-43
2021/05/11 03:14:08;;;;;;;5.40;4.35;;;22.00;47.90;;;;;;5113031;27;20043;-41
2021/05/11 03:16:38;;;;;;;6.15;4.25;;;22.00;47.90;;;;;;5114424;27;20044;-42
2021/05/11 03:19:08;;;;;;;5.68;4.47;;;22.00;47.90;;;;;;5114987;27;20445;-40
2021/05/11 03:21:35;;;;;;;6.43;4.45;;;22.00;47.90;;;;;;5115033;27;20039;-41
2021/05/11 03:24:10;;;;;;;6.43;4.88;;;22.00;47.90;;;;;;5114955;27;20070;-41
2021/05/11 03:26:37;;;;;;;6.43;4.82;;;22.00;47.90;;;;;;5115526;27;20039;-41
2021/05/11 03:29:04;;;;;;;7.03;4.68;;;22.00;47.90;;;;;;5113806;28;20479;-41
2021/05/11 03:31:31;;;;;;;5.75;4.20;;;22.00;47.90;;;;;;5114156;28;20132;-40
2021/05/11 03:33:58;;;;;;;5.80;4.25;;;22.00;47.90;;;;;;5114662;27;20044;-43
2021/05/11 03:36:25;;;;;;;5.97;4.10;;;22.00;47.90;;;;;;5114417;27;20126;-40
2021/05/11 03:38:53;;;;;;;5.95;4.38;;;22.00;47.90;;;;;;5114366;27;20059;-41
2021/05/11 03:41:27;;;;;;;6.30;4.82;;;22.00;47.90;;;;;;5113420;28;20046;-41
2021/05/11 03:43:59;;;;;;;;;;;22.00;47.90;;;;;;5114121;28;20410;-40
2021/05/11 03:46:38;;;;;;;5.07;3.87;;;22.00;47.90;;;;;;5112950;28;19919;-42
2021/05/11 03:49:06;;;;;;;6.15;4.40;;;22.00;47.90;;;;;;5131740;27;20068;-42
2021/05/11 03:51:35;;;;;;;5.30;4.15;;;22.00;47.90;;;;;;5113424;28;20051;-41
2021/05/11 03:54:07;;;;;;;6.47;4.43;;;22.00;47.90;;;;;;5112431;28;20052;-40
2021/05/11 03:56:35;;;;;;;6.10;4.20;;;22.00;47.90;;;;;;5113280;28;20039;-40
2021/05/11 03:59:06;;;;;;;5.93;3.90;;;22.00;47.90;;;;;;5094525;28;20666;-41
2021/05/11 04:01:34;;;;;;;6.68;4.68;;;22.00;47.90;;;;;;5113268;28;20406;-41
2021/05/11 04:04:01;;;;;;;5.75;4.00;;;22.00;47.90;;;;;;5113514;28;20047;-45
2021/05/11 04:06:28;;;;;;;7.13;4.70;;;22.00;47.90;;;;;;5114061;27;20560;-43
2021/05/11 04:09:11;;;;;;;7.47;4.22;;;22.00;47.90;;;;;;5113852;27;20411;-41
2021/05/11 04:16:48;;;;;;;5.53;4.22;;;22.00;47.80;;;;;;5114032;27;20100;-42
2021/05/11 04:19:17;;;;;;;5.95;4.05;;;22.00;47.80;;;;;;5096203;28;20039;-42
2021/05/11 04:21:44;;;;;;;5.85;4.07;;;22.00;47.90;;;;;;5114222;27;20063;-42
2021/05/11 04:24:11;;;;;;;5.75;4.18;;;22.00;47.80;;;;;;5112503;27;20499;-44
2021/05/11 04:26:39;;;;;;;6.07;4.05;;;22.00;47.80;;;;;;5124461;27;20440;-43
2021/05/11 04:29:06;;;;;;;5.88;4.25;;;22.00;47.80;;;;;;5116908;27;20072;-41
2021/05/11 04:31:37;;;;;;;5.93;4.00;;;22.00;47.80;;;;;;5113341;27;20048;-42
2021/05/11 04:34:04;;;;;;;5.55;4.13;;;22.00;47.80;;;;;;5112446;28;20046;-43
2021/05/11 04:36:32;;;;;;;6.40;4.35;;;22.00;47.80;;;;;;5112870;28;20036;-42
2021/05/11 04:39:00;;;;;;;6.88;4.20;;;22.00;47.80;;;;;;5113092;28;20506;-42
2021/05/11 04:41:27;;;;;;;5.78;4.38;;;22.00;47.90;;;;;;5111009;28;20580;-43
2021/05/11 04:43:54;;;;;;;5.72;4.28;;;22.00;47.80;;;;;;5111983;28;20048;-42
2021/05/11 04:46:27;;;;;;;7.15;4.40;;;22.00;47.80;;;;;;5120798;27;20413;-42
2021/05/11 04:48:54;;;;;;;4.93;3.90;;;22.00;47.80;;;;;;5104165;28;20058;-41
2021/05/11 04:51:22;;;;;;;5.63;4.00;;;22.00;47.80;;;;;;5112055;28;20575;-44
2021/05/11 04:53:49;;;;;;;6.35;4.30;;;22.00;47.80;;;;;;5112251;28;20067;-43
2021/05/11 04:56:16;;;;;;;5.63;4.28;;;22.00;47.80;;;;;;5112509;28;20495;-44
2021/05/11 04:58:43;;;;;;;6.10;4.47;;;22.00;47.80;;;;;;5112042;28;20096;-43
2021/05/11 05:01:10;;;;;;;5.88;4.15;;;22.00;47.70;;;;;;5113189;28;20104;-44
2021/05/11 05:03:41;;;;;;;5.63;3.90;;;22.10;47.80;;;;;;5113075;28;20591;-44
2021/05/11 05:06:08;;;;;;;5.18;4.20;;;22.00;47.70;;;;;;5112085;28;20453;-43
2021/05/11 05:08:36;;;;;;;5.97;4.10;;;22.10;47.80;;;;;;5076583;28;20048;-41
2021/05/11 05:11:03;;;;;;;5.57;4.03;;;22.10;47.80;;;;;;5112192;28;20063;-40
2021/05/11 05:13:31;;;;;;;6.18;3.90;;;22.10;47.80;;;;;;5110950;28;20044;-41
2021/05/11 05:15:59;;;;;;;5.25;3.58;;;22.10;47.80;;;;;;5112996;28;20044;-39
2021/05/11 05:18:29;;;;;;;6.10;4.15;;;22.10;47.80;;;;;;5111784;28;20127;-41
2021/05/11 05:20:56;;;;;;;5.18;3.75;;;22.10;47.80;;;;;;5111355;28;20043;-40
2021/05/11 05:23:34;;;;;;;5.53;3.90;;;22.10;47.80;;;;;;5094311;28;20125;-40
2021/05/11 05:26:07;;;;;;;5.32;3.72;;;22.10;47.70;;;;;;5095448;28;20063;-40
2021/05/11 05:28:37;;;;;;;5.00;3.70;;;22.10;47.70;;;;;;5111427;28;20195;-39
2021/05/11 05:31:05;;;;;;;4.72;3.75;;;22.10;47.70;;;;;;5107665;28;20163;-40
2021/05/11 05:33:35;;;;;;;5.55;3.58;;;22.10;47.70;;;;;;5112904;28;20047;-40
2021/05/11 05:36:03;;;;;;;7.38;3.88;;;22.10;47.70;;;;;;5112248;28;20047;-40
2021/05/11 05:38:31;;;;;;;4.75;3.33;;;22.10;47.70;;;;;;5116907;27;20490;-42
2021/05/11 05:41:04;;;;;;;5.35;3.63;;;22.10;47.80;;;;;;5116096;27;20048;-40
2021/05/11 05:43:31;;;;;;;6.47;3.83;;;22.10;47.80;;;;;;5116502;27;20108;-43
2021/05/11 05:45:58;;;;;;;4.70;3.08;;;22.10;47.80;;;;;;5115407;28;20082;-41
2021/05/11 05:48:26;;;;;;;5.38;2.97;;;22.10;47.80;;;;;;5116756;27;20160;-39
2021/05/11 05:50:59;;;;;;;5.90;2.75;;;22.10;48.00;;;;;;5114034;28;20051;-40
2021/05/11 05:53:31;;;;;;;8.23;2.72;;;22.10;48.10;;;;;;5126779;27;20055;-39
2021/05/11 05:55:58;;;;;;;7.10;2.65;;;22.10;48.10;;;;;;5132208;27;20429;-42
2021/05/11 05:58:25;;;;;;;7.25;2.63;;;22.10;47.90;;;;;;5131478;27;20047;-38
2021/05/11 06:00:58;;;;;;;8.43;3.38;;;22.10;47.90;;;;;;5124429;27;20388;-41
2021/05/11 06:03:39;;;;;;;8.85;4.25;;;22.10;48.10;;;;;;5114625;28;20113;-40
2021/05/11 06:06:08;;;;;;;14.23;3.65;;;22.10;48.20;;;;;;5116018;27;20449;-43
2021/05/11 06:08:38;;;;;;;9.68;3.55;;;22.10;48.30;;;;;;5096180;28;20074;-40
2021/05/11 06:13:41;;;;;;;6.95;2.50;;;22.10;48.40;;;;;;5113737;28;20043;-41
2021/05/11 06:18:54;;;;;;;10.65;2.75;;;22.10;48.70;;;;;;5115591;27;20096;-36
2021/05/11 06:21:22;;;;;;;14.07;2.30;;;22.10;49.00;;;;;;5116733;27;20474;-37
2021/05/11 06:23:49;;;;;;;8.90;2.22;;;22.10;49.60;;;;;;5115632;27;20047;-40
2021/05/11 06:26:16;;;;;;;7.93;2.42;;;22.10;50.10;;;;;;5105357;27;20384;-42
2021/05/11 06:28:44;;;;;;;12.10;2.40;;;22.10;50.30;;;;;;5114122;28;20048;-39
2021/05/11 06:31:11;;;;;;;11.40;2.05;;;22.10;50.10;;;;;;5114615;28;20047;-39
2021/05/11 06:33:38;;;;;;;12.50;2.65;;;22.10;50.00;;;;;;5111632;28;20066;-39
2021/05/11 06:36:06;;;;;;;8.32;1.95;;;22.10;49.80;;;;;;5112731;28;20051;-40
2021/05/11 06:38:33;;;;;;;8.95;2.00;;;22.10;49.90;;;;;;5111468;28;20230;-39
2021/05/11 06:41:01;;;;;;;14.18;2.38;;;22.10;50.60;;;;;;5111709;28;20043;-39
2021/05/11 06:43:31;;;;;;;5.07;2.20;;;22.10;50.80;;;;;;5112415;28;20142;-40
2021/05/11 06:48:29;;;;;;;10.63;2.60;;;22.10;51.20;;;;;;5112381;28;20047;-39
2021/05/11 06:53:40;;;;;;;7.70;2.13;;;22.20;51.50;;;;;;5111890;28;20044;-40
2021/05/11 06:56:10;;;;;;;10.68;2.47;;;22.20;51.70;;;;;;5113089;28;20050;-39
2021/05/11 06:58:38;;;;;;;8.98;2.55;;;22.10;51.90;;;;;;5111054;28;20043;-39
2021/05/11 07:01:05;;;;;;;8.73;2.20;;;22.10;51.70;;;;;;5111413;27;20092;-40
2021/05/11 07:03:33;;;;;;;5.63;2.35;;;22.10;51.80;;;;;;5112194;28;20134;-41
2021/05/11 07:06:01;;;;;;;4.93;2.08;;;22.20;52.00;;;;;;5110142;28;20093;-41
2021/05/11 07:08:42;;;;;;;9.70;2.35;;;22.20;52.10;;;;;;5112295;28;20043;-42
2021/05/11 07:11:27;;;;;;;7.05;2.40;;;22.20;52.10;;;;;;5111448;28;20360;-42
2021/05/11 07:13:55;;;;;;;12.25;2.38;;;22.20;52.10;;;;;;5109179;28;20055;-41
2021/05/11 07:16:23;;;;;;;7.88;2.20;;;22.20;52.10;;;;;;5111843;28;20043;-40
2021/05/11 07:18:50;;;;;;;9.05;2.35;;;22.20;51.90;;;;;;5111030;28;20055;-39
2021/05/11 07:21:17;;;;;;;8.80;2.47;;;22.20;51.90;;;;;;5111219;28;20035;-40
2021/05/11 07:23:44;;;;;;;5.68;2.30;;;22.20;51.70;;;;;;5111898;28;20061;-40
2021/05/11 07:31:14;;;;;;;14.23;6.03;;;22.30;51.60;;;;;;5112114;28;20051;-40
2021/05/11 07:33:47;;;;;;;11.55;5.78;;;22.30;51.40;;;;;;5110498;27;20050;-39
2021/05/11 07:36:15;;;;;;;12.43;5.13;;;22.30;51.40;;;;;;5110561;28;20105;-39
2021/05/11 07:38:44;;;;;;;10.55;4.30;;;22.30;51.40;;;;;;5111531;28;20873;-40
2021/05/11 07:41:14;;;;;;;9.27;4.00;;;22.30;51.30;;;;;;5110102;28;20043;-38
2021/05/11 07:43:48;;;;;;;8.65;3.20;;;22.30;51.30;;;;;;5110607;28;20052;-40
2021/05/11 07:49:20;;;;;;;7.72;2.58;;;22.40;50.80;;;;;;5110547;27;20121;-40
2021/05/11 08:15:57;;;;;;;5.00;2.10;;;22.50;51.40;;;;;;5102452;28;20055;-38
2021/05/11 08:29:19;;;;;;;7.88;2.40;;;22.60;52.00;;;;;;5109937;28;20075;-39
2021/05/11 08:31:46;;;;;;;7.60;2.30;;;22.60;52.40;;;;;;5109649;28;20594;-39
2021/05/11 08:34:13;;;;;;;10.32;2.42;;;22.70;52.90;;;;;;5110555;28;20770;-40
2021/05/11 08:36:40;;;;;;;12.23;2.53;;;22.70;53.20;;;;;;5110464;28;20074;-40
2021/05/11 08:39:07;;;;;;;9.60;2.03;;;22.70;53.10;;;;;;5109282;28;20122;-39
2021/05/11 08:41:34;;;;;;;7.78;2.67;;;22.70;52.80;;;;;;5110667;28;20472;-39
2021/05/11 08:44:03;;;;;;;7.22;2.70;;;22.70;52.50;;;;;;5097702;28;20054;-40
2021/05/11 08:46:30;;;;;;;5.38;1.88;;;22.70;52.20;;;;;;5109663;28;20506;-39
2021/05/11 08:49:03;;;;;;;6.15;2.00;;;22.80;51.90;;;;;;5110524;28;20126;-39
2021/05/11 08:51:34;;;;;;;12.30;2.55;;;22.80;51.60;;;;;;5108466;28;20051;-40
2021/05/11 09:00:03;;;;;;;13.32;1.98;;;22.80;51.20;;;;;;5108177;28;20039;-40
2021/05/11 09:27:08;;;;;;;10.48;1.83;;;23.00;46.50;;;;;;5112510;28;20116;-40
2021/05/11 10:48:28;;;;;;;4.63;1.70;;;22.80;45.80;;;;;;5048577;28;20053;-41
2021/05/11 10:51:02;;;;;;;4.80;1.77;;;22.80;46.00;;;;;;5033375;28;20095;-40
2021/05/11 10:53:42;;;;;;;4.53;1.80;;;22.80;46.20;;;;;;5050330;28;20067;-42
2021/05/11 10:56:26;;;;;;;3.58;1.40;;;22.80;46.30;;;;;;5049776;28;20782;-40
2021/05/11 11:02:00;;;;;;;3.63;1.42;;;22.80;46.60;;;;;;5050793;28;20092;-40
2021/05/11 11:04:43;;;;;;;4.45;1.63;;;22.80;46.70;;;;;;5049440;28;20563;-41
2021/05/11 11:07:11;;;;;;;6.63;1.53;;;22.80;46.80;;;;;;5049981;28;20045;-41
2021/05/11 11:09:40;;;;;;;4.30;1.42;;;22.80;46.90;;;;;;5050424;28;20049;-42
2021/05/11 11:12:09;;;;;;;3.83;1.55;;;22.70;47.00;;;;;;5087602;28;20093;-41
2021/05/11 11:14:41;;;;;;;2.40;1.52;;;22.70;47.00;;;;;;5102034;28;20052;-41
2021/05/11 11:17:13;;;;;;;2.80;1.20;;;22.70;47.20;;;;;;5112487;28;20047;-41
2021/05/11 11:19:48;;;;;;;2.75;1.40;;;22.70;47.20;;;;;;5110662;27;20112;-41
2021/05/11 11:25:03;;;;;;;2.30;1.20;;;22.70;47.30;;;;;;5112459;28;20167;-43
2021/05/11 11:27:33;;;;;;;4.55;1.63;;;22.70;47.40;;;;;;5099265;28;20055;-40
2021/05/11 11:30:08;;;;;;;5.50;1.58;;;22.70;47.40;;;;;;5112082;28;20043;-40
2021/05/11 11:32:36;;;;;;;5.07;1.45;;;22.70;47.50;;;;;;5112691;28;20375;-41
2021/05/11 11:35:06;;;;;;;3.40;1.58;;;22.70;47.50;;;;;;5110275;28;20055;-44
2021/05/11 11:37:33;;;;;;;5.88;1.63;;;22.70;47.60;;;;;;5113076;27;20099;-44
2021/05/11 11:40:04;;;;;;;2.75;1.48;;;22.70;47.60;;;;;;5111107;28;20100;-40
2021/05/11 11:42:39;;;;;;;4.32;1.65;;;22.70;47.70;;;;;;5111046;28;20050;-42
2021/05/11 11:45:23;;;;;;;3.97;1.60;;;22.70;47.60;;;;;;5112192;28;20051;-40
2021/05/11 11:48:05;;;;;;;2.33;1.13;;;22.70;47.70;;;;;;5111413;28;20051;-42
2021/05/11 11:50:37;;;;;;;4.97;1.67;;;22.70;47.70;;;;;;5110653;28;20078;-44
2021/05/11 11:53:13;;;;;;;2.83;1.30;;;22.70;47.70;;;;;;5110995;28;20126;-43
2021/05/11 11:58:07;;;;;;;1.98;1.10;;;22.70;47.80;;;;;;5110508;28;20063;-41
2021/05/11 12:00:36;;;;;;;5.75;1.20;;;22.70;47.90;;;;;;5110875;28;20407;-41
2021/05/11 12:03:09;;;;;;;3.30;1.58;;;22.70;48.50;;;;;;5108036;28;20445;-43
2021/05/11 12:05:43;;;;;;;3.42;1.75;;;22.70;48.50;;;;;;5111161;27;20403;-41
2021/05/11 12:10:49;;;;;;;3.30;1.38;;;22.70;48.60;;;;;;5107608;27;20048;-44
2021/05/11 12:13:22;;;;;;;4.13;1.70;;;22.70;48.30;;;;;;5109688;27;20563;-42
2021/05/11 12:16:08;;;;;;;2.50;1.08;;;22.70;48.20;;;;;;5100506;28;20130;-43
2021/05/11 12:18:38;;;;;;;3.45;1.52;;;22.70;48.20;;;;;;5109127;28;20054;-45
2021/05/11 12:21:07;;;;;;;5.90;1.30;;;22.70;48.40;;;;;;5110705;28;20048;-46
2021/05/11 12:23:34;;;;;;;4.60;1.10;;;22.70;48.30;;;;;;5099180;28;20098;-44
2021/05/11 12:26:04;;;;;;;5.35;1.23;;;22.70;48.40;;;;;;5109434;28;20043;-43
2021/05/11 12:28:36;;;;;;;4.70;1.30;;;22.70;48.50;;;;;;5111470;28;20109;-42
2021/05/11 12:31:07;;;;;;;4.95;1.48;;;22.70;48.50;;;;;;5109539;28;20052;-41
2021/05/11 12:33:34;;;;;;;3.67;1.20;;;22.70;48.50;;;;;;5100333;28;20055;-42
2021/05/11 12:36:15;;;;;;;3.17;1.20;;;22.70;48.40;;;;;;5111088;28;20043;-42
2021/05/11 12:38:43;;;;;;;3.30;1.40;;;22.70;48.40;;;;;;5109866;27;20046;-42
2021/05/11 12:41:33;;;;;;;3.22;1.30;;;22.70;48.40;;;;;;5111614;28;20043;-41
2021/05/11 12:44:04;;;;;;;3.05;1.40;;;22.70;48.40;;;;;;5110633;28;20039;-46
2021/05/11 12:46:37;;;;;;;4.30;1.25;;;22.70;48.30;;;;;;5109528;28;20051;-44
2021/05/11 12:49:16;;;;;;;4.05;1.33;;;22.70;48.40;;;;;;5111183;28;20043;-41
2021/05/11 12:51:50;;;;;;;4.03;1.60;;;22.70;48.40;;;;;;5110596;28;20040;-40
2021/05/11 12:54:22;;;;;;;4.32;1.42;;;22.70;48.30;;;;;;5109916;28;20040;-40
2021/05/11 12:56:59;;;;;;;3.10;1.20;;;22.70;48.30;;;;;;5111532;28;20414;-40
2021/05/11 13:21:14;;;;;;;2.97;1.27;;;22.70;48.20;;;;;;5110637;28;20051;-41
2021/05/11 13:26:41;;;;;;;2.22;1.10;;;22.70;48.20;;;;;;5110176;28;20055;-41
2021/05/11 13:32:02;;;;;;;4.65;1.30;;;22.70;48.20;;;;;;5021080;28;20089;-41
2021/05/11 13:34:33;;;;;;;1.90;1.20;;;22.70;48.20;;;;;;5021169;28;20096;-40
2021/05/11 13:37:01;;;;;;;2.55;1.13;;;22.70;48.20;;;;;;5020795;28;20077;-40
2021/05/11 13:39:28;;;;;;;3.47;1.13;;;22.70;48.20;;;;;;5023725;28;20049;-42
2021/05/11 13:41:55;;;;;;;2.92;1.20;;;22.70;48.20;;;;;;5020236;28;20088;-41
2021/05/11 13:44:24;;;;;;;2.30;1.15;;;22.70;48.20;;;;;;5021356;28;20104;-40
2021/05/11 13:46:51;;;;;;;2.17;1.08;;;22.70;48.20;;;;;;5021473;28;20053;-40
2021/05/11 13:49:20;;;;;;;5.03;1.27;;;22.70;48.20;;;;;;5019930;28;20065;-42
2021/05/11 13:51:47;;;;;;;2.03;1.20;;;22.70;48.20;;;;;;5024425;28;20046;-40
2021/05/11 13:54:17;;;;;;;2.08;1.20;;;22.70;48.20;;;;;;5021482;28;20069;-41
2021/05/11 14:04:40;;;;;;;1.98;1.23;;;22.60;48.10;;;;;;5022876;28;20104;-41
2021/05/11 14:07:08;;;;;;;3.22;1.30;;;22.60;48.20;;;;;;5025050;28;20042;-40
2021/05/11 14:09:35;;;;;;;2.85;1.40;;;22.60;48.10;;;;;;5088438;28;20051;-40
2021/05/11 14:12:03;;;;;;;1.77;1.10;;;22.60;48.10;;;;;;5113559;28;20077;-40
2021/05/11 14:14:30;;;;;;;2.38;1.00;;;22.60;48.10;;;;;;5111932;28;20059;-41
2021/05/11 14:16:57;;;;;;;3.10;0.80;;;22.60;48.10;;;;;;5113802;28;20054;-40
2021/05/11 14:19:30;;;;;;;2.00;1.02;;;22.70;48.20;;;;;;5111660;28;20122;-42
2021/05/11 14:21:58;;;;;;;1.60;1.00;;;22.60;48.20;;;;;;5113993;28;20471;-42
2021/05/11 14:24:25;;;;;;;2.08;1.10;;;22.60;48.20;;;;;;5112459;28;20065;-40
2021/05/11 14:26:52;;;;;;;1.48;1.10;;;22.60;48.20;;;;;;5112902;28;20047;-40
2021/05/11 14:29:21;;;;;;;2.33;1.00;;;22.60;48.10;;;;;;5114031;28;20048;-40
2021/05/11 14:31:50;;;;;;;2.17;1.20;;;22.60;48.20;;;;;;5112227;27;20130;-43
2021/05/11 14:34:24;;;;;;;3.42;1.08;;;22.60;48.20;;;;;;5113565;28;20441;-40
2021/05/11 14:36:52;;;;;;;2.17;1.05;;;22.60;48.20;;;;;;5113108;28;20088;-40
2021/05/11 14:39:21;;;;;;;5.03;1.00;;;22.60;48.20;;;;;;5111369;27;20123;-42
2021/05/11 14:41:53;;;;;;;3.72;1.30;;;22.60;48.20;;;;;;5113521;28;20121;-41
2021/05/11 14:44:25;;;;;;;1.90;1.15;;;22.60;48.20;;;;;;5112703;28;20126;-41
2021/05/11 14:46:55;;;;;;;1.48;1.00;;;22.60;48.20;;;;;;5113651;27;20050;-44
2021/05/11 14:49:24;;;;;;;3.17;1.42;;;22.60;48.20;;;;;;5113833;28;20047;-42
2021/05/11 14:51:51;;;;;;;2.28;1.20;;;22.60;48.20;;;;;;5111309;27;20062;-40
2021/05/11 14:54:18;;;;;;;3.03;1.02;;;22.60;48.20;;;;;;5103231;28;20048;-43
2021/05/11 14:56:45;;;;;;;3.67;1.13;;;22.60;48.20;;;;;;5112319;28;20079;-40
2021/05/11 14:59:13;;;;;;;3.08;1.30;;;22.60;48.20;;;;;;5112062;28;20042;-40
2021/05/11 15:01:41;;;;;;;1.55;1.00;;;22.60;48.20;;;;;;5113148;28;20514;-44
2021/05/11 15:04:08;;;;;;;1.50;1.00;;;22.60;48.20;;;;;;5111322;28;20055;-40
2021/05/11 15:06:35;;;;;;;2.45;1.27;;;22.60;48.20;;;;;;5113046;27;20090;-41
2021/05/11 15:09:06;;;;;;;1.38;1.00;;;22.60;48.20;;;;;;5112573;28;20058;-40
2021/05/11 15:11:33;;;;;;;1.67;0.93;;;22.60;48.10;;;;;;5111824;27;20048;-39
2021/05/11 15:14:01;;;;;;;2.20;1.38;;;22.60;48.20;;;;;;5112478;28;20117;-39
2021/05/11 15:16:31;;;;;;;2.60;1.15;;;22.60;48.20;;;;;;5111118;28;20039;-40
2021/05/11 15:18:58;;;;;;;3.13;1.38;;;22.60;48.80;;;;;;5112190;27;20035;-41
2021/05/11 15:21:26;;;;;;;2.20;1.13;;;22.50;48.10;;;;;;5112991;28;20083;-39
2021/05/11 15:23:59;;;;;;;1.90;1.33;;;22.60;48.20;;;;;;5110949;27;20035;-40
2021/05/11 15:26:32;;;;;;;1.58;1.00;;;22.60;48.20;;;;;;5113011;28;20112;-40
2021/05/11 15:29:01;;;;;;;2.50;1.17;;;22.60;48.20;;;;;;5111935;28;20055;-40
2021/05/11 15:31:28;;;;;;;2.40;1.30;;;22.50;48.10;;;;;;5111500;27;20048;-40
2021/05/11 15:33:56;;;;;;;1.83;1.10;;;22.60;48.20;;;;;;5113089;28;20047;-40
2021/05/11 15:36:24;;;;;;;2.65;1.10;;;22.50;48.10;;;;;;5111442;28;20403;-40
2021/05/11 15:38:51;;;;;;;3.80;1.42;;;22.60;48.20;;;;;;5111750;28;20043;-39
2021/05/11 15:41:23;;;;;;;1.85;1.00;;;22.50;48.10;;;;;;5112422;28;20483;-40
2021/05/11 15:43:50;;;;;;;1.90;0.90;;;22.50;48.10;;;;;;5110425;28;20074;-41
2021/05/11 15:46:17;;;;;;;3.13;1.15;;;22.50;48.10;;;;;;5112306;28;20047;-40
2021/05/11 15:48:44;;;;;;;2.75;1.00;;;22.50;48.10;;;;;;5111433;28;20047;-40
2021/05/11 15:51:11;;;;;;;1.83;1.10;;;22.60;48.20;;;;;;5111166;28;20097;-40
2021/05/11 15:53:39;;;;;;;1.75;1.20;;;22.50;48.10;;;;;;5112449;28;20065;-39
2021/05/11 15:56:06;;;;;;;4.03;1.25;;;22.50;48.00;;;;;;5110299;28;20085;-41
2021/05/11 15:58:33;;;;;;;2.10;1.20;;;22.50;48.00;;;;;;5112132;28;20073;-40
2021/05/11 16:01:00;;;;;;;2.10;1.25;;;22.50;48.10;;;;;;5110576;28;20094;-39
2021/05/11 16:03:27;;;;;;;2.63;1.20;;;22.50;48.00;;;;;;5111992;27;20052;-40
2021/05/11 16:05:54;;;;;;;2.50;1.13;;;22.60;48.10;;;;;;5111821;28;20610;-41
2021/05/11 16:08:27;;;;;;;2.30;0.90;;;22.60;48.70;;;;;;5109683;28;20056;-39
2021/05/11 16:10:55;;;;;;;2.25;1.00;;;22.60;48.10;;;;;;5111924;28;20047;-40
2021/05/11 16:13:24;;;;;;;2.40;0.98;;;22.60;48.20;;;;;;5110135;28;20039;-39
2021/05/11 16:15:51;;;;;;;2.65;1.10;;;22.50;48.00;;;;;;5110247;28;20083;-40
2021/05/11 16:18:19;;;;;;;3.38;1.20;;;22.50;48.00;;;;;;5112307;28;20130;-40
2021/05/11 16:20:46;;;;;;;2.28;1.00;;;22.50;48.00;;;;;;5108657;28;20043;-40
2021/05/11 16:23:13;;;;;;;1.58;1.02;;;22.50;48.00;;;;;;5111429;28;20050;-41
2021/05/11 16:25:40;;;;;;;2.50;1.02;;;22.50;48.00;;;;;;5110841;28;20055;-39
2021/05/11 16:28:08;;;;;;;1.60;0.93;;;22.50;48.00;;;;;;5110767;27;20052;-39
2021/05/11 16:30:38;;;;;;;1.60;0.98;;;22.50;48.00;;;;;;5110905;28;20060;-39
2021/05/11 16:33:09;;;;;;;1.30;0.98;;;22.50;48.00;;;;;;5110145;28;20043;-41
2021/05/11 16:35:37;;;;;;;1.90;0.85;;;22.50;48.00;;;;;;5110465;27;20135;-42
2021/05/11 16:38:04;;;;;;;1.75;1.13;;;22.50;48.00;;;;;;5111437;28;20039;-40
2021/05/11 16:40:31;;;;;;;2.38;0.90;;;22.60;48.10;;;;;;5109442;28;20044;-41
2021/05/11 16:42:58;;;;;;;2.22;1.30;;;22.50;48.00;;;;;;5111673;28;20072;-39
2021/05/11 16:45:26;;;;;;;2.08;1.20;;;22.50;48.00;;;;;;5110542;28;20055;-40
2021/05/11 16:47:54;;;;;;;1.48;1.05;;;22.50;48.00;;;;;;5110826;28;20089;-39
2021/05/11 16:50:29;;;;;;;1.90;0.80;;;22.50;48.00;;;;;;5111365;28;20055;-41
2021/05/11 16:52:59;;;;;;;1.70;0.90;;;22.50;48.00;;;;;;5109301;28;20470;-41
2021/05/11 16:55:28;;;;;;;2.30;1.10;;;22.50;48.00;;;;;;5110181;28;20048;-43
2021/05/11 16:57:57;;;;;;;1.92;0.90;;;22.50;48.00;;;;;;5110750;28;20055;-39
2021/05/11 17:00:27;;;;;;;1.45;0.98;;;22.50;48.00;;;;;;5099255;28;20075;-44
2021/05/11 17:02:54;;;;;;;3.45;1.30;;;22.50;48.00;;;;;;5110873;28;20492;-42
2021/05/11 17:05:21;;;;;;;1.55;1.00;;;22.50;48.00;;;;;;5110986;27;20035;-41
2021/05/11 17:07:50;;;;;;;2.15;1.00;;;22.50;48.00;;;;;;5110992;28;20040;-41
2021/05/11 17:10:18;;;;;;;1.45;0.90;;;22.50;48.00;;;;;;5110967;28;20443;-41
2021/05/11 17:12:47;;;;;;;2.00;1.27;;;22.50;48.50;;;;;;5108865;28;20040;-41
2021/05/11 17:15:15;;;;;;;1.92;0.80;;;22.50;48.00;;;;;;5095841;28;20056;-41
2021/05/11 17:17:42;;;;;;;1.63;1.02;;;22.50;48.00;;;;;;5098190;28;20090;-40
2021/05/11 17:20:10;;;;;;;1.52;1.00;;;22.50;48.00;;;;;;5098808;28;20040;-40
2021/05/11 17:22:37;;;;;;;1.20;1.10;;;22.50;48.00;;;;;;5100662;28;20052;-41
2021/05/11 17:25:06;;;;;;;1.20;0.88;;;22.50;48.60;;;;;;5097604;28;20115;-41
2021/05/11 17:27:35;;;;;;;1.30;1.13;;;22.50;48.00;;;;;;5100778;28;20479;-41